Terminal Aerodrome Forecast
Issued by NWS

Home | Current Version | Previous Version | Text Only | Print | Product List | Glossary On
Versions: 1 2 3 4 5 6 7 8 9 10 11 12
000
FTUS42 TJSJ 252339
TAFKPK
TAF
TKPK 252339Z 2600/2624 11008KT 5SM -RA SCT018 BKN040
     FM261300 12015KT P6SM VCSH SCT020 BKN050
     FM262300 11008KT P6SM SCT018
      AMD NOT SKED 2602/2611=

USA.gov is the U.S. government's official web portal to all federal, state and local government web resources and services.